sensor_id;sensor_type;location;lat;lon;timestamp;pressure;altitude;pressure_sealevel;temperature;humidity
17311;BME280;8773;43.300;0.394;2023-01-28T00:01:04;100450.41;;;3.83;73.73
17311;BME280;8773;43.300;0.394;2023-01-28T00:03:33;100453.09;;;3.69;74.14
17311;BME280;8773;43.300;0.394;2023-01-28T00:06:03;100449.66;;;3.95;73.83
17311;BME280;8773;43.300;0.394;2023-01-28T00:08:31;100443.50;;;4.23;72.37
17311;BME280;8773;43.300;0.394;2023-01-28T00:11:01;100443.28;;;4.40;71.92
17311;BME280;8773;43.300;0.394;2023-01-28T00:13:30;100441.03;;;4.34;71.72
17311;BME280;8773;43.300;0.394;2023-01-28T00:15:59;100437.22;;;4.38;71.82
17311;BME280;8773;43.300;0.394;2023-01-28T00:18:28;100437.13;;;4.13;72.34
17311;BME280;8773;43.300;0.394;2023-01-28T00:20:59;100443.69;;;4.20;72.04
17311;BME280;8773;43.300;0.394;2023-01-28T00:23:28;100435.91;;;4.04;72.69
17311;BME280;8773;43.300;0.394;2023-01-28T00:25:58;100427.69;;;3.95;72.94
17311;BME280;8773;43.300;0.394;2023-01-28T00:28:26;100419.75;;;3.95;72.69
17311;BME280;8773;43.300;0.394;2023-01-28T00:30:55;100422.03;;;4.01;72.90
17311;BME280;8773;43.300;0.394;2023-01-28T00:33:23;100418.47;;;4.02;72.68
17311;BME280;8773;43.300;0.394;2023-01-28T00:35:58;100420.41;;;3.98;72.98
17311;BME280;8773;43.300;0.394;2023-01-28T00:38:27;100426.47;;;4.00;72.85
17311;BME280;8773;43.300;0.394;2023-01-28T00:41:06;100419.66;;;4.10;72.67
17311;BME280;8773;43.300;0.394;2023-01-28T00:43:34;100420.41;;;4.13;72.41
17311;BME280;8773;43.300;0.394;2023-01-28T00:46:02;100413.28;;;4.27;72.53
17311;BME280;8773;43.300;0.394;2023-01-28T00:48:31;100418.56;;;4.00;72.83
17311;BME280;8773;43.300;0.394;2023-01-28T00:51:00;100418.72;;;4.12;73.08
17311;BME280;8773;43.300;0.394;2023-01-28T00:53:29;100417.53;;;4.30;72.18
17311;BME280;8773;43.300;0.394;2023-01-28T00:55:58;100415.88;;;4.41;71.86
17311;BME280;8773;43.300;0.394;2023-01-28T00:58:26;100410.75;;;4.53;71.08
17311;BME280;8773;43.300;0.394;2023-01-28T01:00:54;100406.53;;;4.63;71.26
17311;BME280;8773;43.300;0.394;2023-01-28T01:03:22;100405.56;;;4.64;71.00
17311;BME280;8773;43.300;0.394;2023-01-28T01:05:50;100406.13;;;4.69;70.82
17311;BME280;8773;43.300;0.394;2023-01-28T01:08:20;100408.66;;;4.58;71.20
17311;BME280;8773;43.300;0.394;2023-01-28T01:11:01;100413.25;;;4.41;71.49
17311;BME280;8773;43.300;0.394;2023-01-28T01:13:30;100412.53;;;4.52;70.61
17311;BME280;8773;43.300;0.394;2023-01-28T01:16:01;100407.69;;;4.59;70.09
17311;BME280;8773;43.300;0.394;2023-01-28T01:18:30;100410.22;;;4.60;70.22
17311;BME280;8773;43.300;0.394;2023-01-28T01:20:58;100404.53;;;4.66;70.05
17311;BME280;8773;43.300;0.394;2023-01-28T01:23:29;100400.28;;;4.64;70.70
17311;BME280;8773;43.300;0.394;2023-01-28T01:25:57;100405.16;;;4.70;70.50
17311;BME280;8773;43.300;0.394;2023-01-28T01:28:26;100407.91;;;4.68;69.76
17311;BME280;8773;43.300;0.394;2023-01-28T01:30:58;100409.22;;;4.75;69.59
17311;BME280;8773;43.300;0.394;2023-01-28T01:33:27;100408.75;;;4.69;70.07
17311;BME280;8773;43.300;0.394;2023-01-28T01:35:56;100400.41;;;4.35;71.59
17311;BME280;8773;43.300;0.394;2023-01-28T01:38:25;100416.19;;;4.10;72.37
17311;BME280;8773;43.300;0.394;2023-01-28T01:40:56;100412.16;;;4.17;72.63
17311;BME280;8773;43.300;0.394;2023-01-28T01:43:45;100414.53;;;4.49;72.15
17311;BME280;8773;43.300;0.394;2023-01-28T01:46:16;100414.25;;;4.66;71.23
17311;BME280;8773;43.300;0.394;2023-01-28T01:48:45;100411.94;;;4.74;70.63
17311;BME280;8773;43.300;0.394;2023-01-28T01:51:17;100415.88;;;4.81;70.23
17311;BME280;8773;43.300;0.394;2023-01-28T01:53:48;100410.94;;;4.89;70.63
17311;BME280;8773;43.300;0.394;2023-01-28T01:56:25;100408.53;;;4.99;70.08
17311;BME280;8773;43.300;0.394;2023-01-28T01:58:55;100416.47;;;4.99;70.08
17311;BME280;8773;43.300;0.394;2023-01-28T02:01:28;100405.88;;;4.99;70.12
17311;BME280;8773;43.300;0.394;2023-01-28T02:04:03;100417.94;;;4.90;70.26
17311;BME280;8773;43.300;0.394;2023-01-28T02:06:33;100411.53;;;4.80;70.67
17311;BME280;8773;43.300;0.394;2023-01-28T02:09:06;100414.81;;;4.71;70.66
17311;BME280;8773;43.300;0.394;2023-01-28T02:11:50;100416.50;;;4.72;70.87
17311;BME280;8773;43.300;0.394;2023-01-28T02:14:21;100419.03;;;4.73;70.74
17311;BME280;8773;43.300;0.394;2023-01-28T02:17:00;100420.78;;;4.87;70.98
17311;BME280;8773;43.300;0.394;2023-01-28T02:19:33;100415.03;;;4.81;70.97
17311;BME280;8773;43.300;0.394;2023-01-28T02:22:13;100418.13;;;4.87;70.70
17311;BME280;8773;43.300;0.394;2023-01-28T02:25:01;100415.06;;;4.93;70.32
17311;BME280;8773;43.300;0.394;2023-01-28T02:27:36;100410.41;;;4.84;70.55
17311;BME280;8773;43.300;0.394;2023-01-28T02:30:10;100409.44;;;4.85;70.81
17311;BME280;8773;43.300;0.394;2023-01-28T02:32:45;100420.47;;;4.92;70.12
17311;BME280;8773;43.300;0.394;2023-01-28T02:35:23;100411.25;;;4.85;70.16
17311;BME280;8773;43.300;0.394;2023-01-28T02:37:57;100414.31;;;4.91;70.25
17311;BME280;8773;43.300;0.394;2023-01-28T02:40:29;100428.72;;;4.87;70.03
17311;BME280;8773;43.300;0.394;2023-01-28T02:43:00;100423.41;;;4.87;70.31
17311;BME280;8773;43.300;0.394;2023-01-28T02:45:31;100422.38;;;4.90;69.83
17311;BME280;8773;43.300;0.394;2023-01-28T02:48:15;100421.72;;;4.86;70.08
17311;BME280;8773;43.300;0.394;2023-01-28T02:50:48;100423.84;;;4.94;70.01
17311;BME280;8773;43.300;0.394;2023-01-28T02:53:25;100423.56;;;4.98;69.90
17311;BME280;8773;43.300;0.394;2023-01-28T02:56:17;100420.25;;;4.95;70.15
17311;BME280;8773;43.300;0.394;2023-01-28T02:58:50;100417.28;;;4.87;69.81
17311;BME280;8773;43.300;0.394;2023-01-28T03:01:27;100417.19;;;4.88;69.96
17311;BME280;8773;43.300;0.394;2023-01-28T03:04:02;100422.38;;;4.90;70.02
17311;BME280;8773;43.300;0.394;2023-01-28T03:06:35;100428.06;;;4.84;70.04
17311;BME280;8773;43.300;0.394;2023-01-28T03:09:06;100429.31;;;4.78;69.97
17311;BME280;8773;43.300;0.394;2023-01-28T03:11:55;100432.03;;;4.64;70.61
17311;BME280;8773;43.300;0.394;2023-01-28T03:14:44;100429.72;;;4.72;70.28
17311;BME280;8773;43.300;0.394;2023-01-28T03:17:36;100432.34;;;4.59;71.02
17311;BME280;8773;43.300;0.394;2023-01-28T03:20:27;100427.09;;;4.45;71.20
17311;BME280;8773;43.300;0.394;2023-01-28T03:23:18;100424.38;;;4.47;71.52
17311;BME280;8773;43.300;0.394;2023-01-28T03:26:07;100436.63;;;4.48;71.51
17311;BME280;8773;43.300;0.394;2023-01-28T03:28:54;100435.19;;;4.56;71.04
17311;BME280;8773;43.300;0.394;2023-01-28T03:31:44;100440.88;;;4.50;71.60
17311;BME280;8773;43.300;0.394;2023-01-28T03:34:31;100439.44;;;4.59;71.03
17311;BME280;8773;43.300;0.394;2023-01-28T03:37:16;100440.91;;;4.63;70.56
17311;BME280;8773;43.300;0.394;2023-01-28T03:39:45;100442.19;;;4.70;70.60
17311;BME280;8773;43.300;0.394;2023-01-28T03:42:13;100442.31;;;4.68;70.74
17311;BME280;8773;43.300;0.394;2023-01-28T03:44:43;100440.31;;;4.72;70.69
17311;BME280;8773;43.300;0.394;2023-01-28T03:47:19;100449.84;;;4.74;70.18
17311;BME280;8773;43.300;0.394;2023-01-28T03:49:51;100442.94;;;4.72;70.53
17311;BME280;8773;43.300;0.394;2023-01-28T03:52:21;100443.78;;;4.72;70.07
17311;BME280;8773;43.300;0.394;2023-01-28T03:54:53;100444.75;;;4.71;70.45
17311;BME280;8773;43.300;0.394;2023-01-28T03:57:22;100447.88;;;4.64;70.13
17311;BME280;8773;43.300;0.394;2023-01-28T03:59:51;100448.63;;;4.66;70.29
17311;BME280;8773;43.300;0.394;2023-01-28T04:02:20;100448.97;;;4.74;70.18
17311;BME280;8773;43.300;0.394;2023-01-28T04:04:50;100440.50;;;4.69;70.44
17311;BME280;8773;43.300;0.394;2023-01-28T04:07:18;100446.34;;;4.74;70.21
17311;BME280;8773;43.300;0.394;2023-01-28T04:09:46;100440.50;;;4.69;69.87
17311;BME280;8773;43.300;0.394;2023-01-28T04:12:14;100443.34;;;4.66;70.05
17311;BME280;8773;43.300;0.394;2023-01-28T04:14:44;100447.25;;;4.60;70.55
17311;BME280;8773;43.300;0.394;2023-01-28T04:17:12;100445.56;;;4.59;70.65
17311;BME280;8773;43.300;0.394;2023-01-28T04:19:40;100442.69;;;4.50;70.96
17311;BME280;8773;43.300;0.394;2023-01-28T04:22:10;100442.88;;;4.47;70.82
17311;BME280;8773;43.300;0.394;2023-01-28T04:24:39;100445.53;;;4.47;70.92
17311;BME280;8773;43.300;0.394;2023-01-28T04:27:07;100440.97;;;4.49;71.06
17311;BME280;8773;43.300;0.394;2023-01-28T04:29:35;100435.34;;;4.40;71.16
17311;BME280;8773;43.300;0.394;2023-01-28T04:32:03;100432.69;;;4.40;71.06
17311;BME280;8773;43.300;0.394;2023-01-28T04:34:31;100439.88;;;4.38;71.06
17311;BME280;8773;43.300;0.394;2023-01-28T04:36:59;100441.56;;;4.39;71.13
17311;BME280;8773;43.300;0.394;2023-01-28T04:39:29;100440.44;;;4.43;71.13
17311;BME280;8773;43.300;0.394;2023-01-28T04:41:57;100431.75;;;4.41;70.85
17311;BME280;8773;43.300;0.394;2023-01-28T04:44:25;100439.31;;;4.33;71.19
17311;BME280;8773;43.300;0.394;2023-01-28T04:46:53;100436.78;;;4.32;71.48
17311;BME280;8773;43.300;0.394;2023-01-28T04:49:21;100441.41;;;4.28;71.55
17311;BME280;8773;43.300;0.394;2023-01-28T04:51:49;100441.97;;;4.33;71.42
17311;BME280;8773;43.300;0.394;2023-01-28T04:54:17;100441.56;;;4.39;71.40
17311;BME280;8773;43.300;0.394;2023-01-28T04:56:47;100451.19;;;4.40;71.02
17311;BME280;8773;43.300;0.394;2023-01-28T04:59:15;100451.84;;;4.44;71.17
17311;BME280;8773;43.300;0.394;2023-01-28T05:01:44;100449.69;;;4.36;71.36
17311;BME280;8773;43.300;0.394;2023-01-28T05:04:12;100447.25;;;4.33;71.46
17311;BME280;8773;43.300;0.394;2023-01-28T05:06:40;100454.06;;;4.23;71.81
17311;BME280;8773;43.300;0.394;2023-01-28T05:09:08;100444.59;;;4.33;71.55
17311;BME280;8773;43.300;0.394;2023-01-28T05:11:36;100448.38;;;4.29;71.51
17311;BME280;8773;43.300;0.394;2023-01-28T05:14:06;100459.53;;;4.34;71.61
17311;BME280;8773;43.300;0.394;2023-01-28T05:16:34;100470.19;;;4.33;71.42
17311;BME280;8773;43.300;0.394;2023-01-28T05:19:03;100470.34;;;4.44;71.17
17311;BME280;8773;43.300;0.394;2023-01-28T05:21:31;100472.16;;;4.43;71.03
17311;BME280;8773;43.300;0.394;2023-01-28T05:23:59;100468.75;;;4.41;71.16
17311;BME280;8773;43.300;0.394;2023-01-28T05:26:27;100476.53;;;4.30;71.38
17311;BME280;8773;43.300;0.394;2023-01-28T05:28:55;100477.63;;;4.40;71.63
17311;BME280;8773;43.300;0.394;2023-01-28T05:31:25;100473.66;;;4.48;71.32
17311;BME280;8773;43.300;0.394;2023-01-28T05:33:56;100476.13;;;4.36;71.52
17311;BME280;8773;43.300;0.394;2023-01-28T05:36:24;100482.06;;;4.40;71.61
17311;BME280;8773;43.300;0.394;2023-01-28T05:38:52;100489.72;;;4.44;71.39
17311;BME280;8773;43.300;0.394;2023-01-28T05:41:21;100490.66;;;4.43;71.44
17311;BME280;8773;43.300;0.394;2023-01-28T05:43:49;100497.34;;;4.49;71.27
17311;BME280;8773;43.300;0.394;2023-01-28T05:46:17;100498.75;;;4.55;71.11
17311;BME280;8773;43.300;0.394;2023-01-28T05:48:46;100499.31;;;4.60;71.00
17311;BME280;8773;43.300;0.394;2023-01-28T05:51:16;100495.06;;;4.57;71.16
17311;BME280;8773;43.300;0.394;2023-01-28T05:53:44;100495.91;;;4.58;70.89
17311;BME280;8773;43.300;0.394;2023-01-28T05:56:12;100499.63;;;4.55;70.90
17311;BME280;8773;43.300;0.394;2023-01-28T05:58:40;100491.50;;;4.44;71.07
17311;BME280;8773;43.300;0.394;2023-01-28T06:01:11;100503.50;;;4.50;70.86
17311;BME280;8773;43.300;0.394;2023-01-28T06:03:39;100509.16;;;4.58;70.87
17311;BME280;8773;43.300;0.394;2023-01-28T06:06:12;100505.22;;;4.63;70.55
17311;BME280;8773;43.300;0.394;2023-01-28T06:08:40;100497.75;;;4.70;70.18
17311;BME280;8773;43.300;0.394;2023-01-28T06:11:08;100495.81;;;4.59;70.67
17311;BME280;8773;43.300;0.394;2023-01-28T06:13:36;100500.38;;;4.57;70.67
17311;BME280;8773;43.300;0.394;2023-01-28T06:16:05;100499.09;;;4.63;70.80
17311;BME280;8773;43.300;0.394;2023-01-28T06:18:33;100496.50;;;4.49;70.73
17311;BME280;8773;43.300;0.394;2023-01-28T06:21:01;100497.81;;;4.56;70.53
17311;BME280;8773;43.300;0.394;2023-01-28T06:23:31;100491.03;;;4.52;70.81
17311;BME280;8773;43.300;0.394;2023-01-28T06:25:59;100494.28;;;4.28;71.41
17311;BME280;8773;43.300;0.394;2023-01-28T06:28:27;100505.97;;;4.38;71.36
17311;BME280;8773;43.300;0.394;2023-01-28T06:30:55;100505.88;;;4.40;71.06
17311;BME280;8773;43.300;0.394;2023-01-28T06:33:24;100512.50;;;4.33;71.16
17311;BME280;8773;43.300;0.394;2023-01-28T06:35:52;100515.88;;;4.35;71.62
17311;BME280;8773;43.300;0.394;2023-01-28T06:38:20;100522.50;;;4.42;71.50
17311;BME280;8773;43.300;0.394;2023-01-28T06:40:53;100526.53;;;4.48;71.31
17311;BME280;8773;43.300;0.394;2023-01-28T06:43:21;100520.69;;;4.42;71.14
17311;BME280;8773;43.300;0.394;2023-01-28T06:45:53;100531.63;;;4.51;71.07
17311;BME280;8773;43.300;0.394;2023-01-28T06:48:21;100520.75;;;4.55;70.96
17311;BME280;8773;43.300;0.394;2023-01-28T06:50:50;100528.03;;;4.52;70.74
17311;BME280;8773;43.300;0.394;2023-01-28T06:53:18;100530.97;;;4.47;71.16
17311;BME280;8773;43.300;0.394;2023-01-28T06:55:46;100529.94;;;4.50;70.99
17311;BME280;8773;43.300;0.394;2023-01-28T06:58:16;100523.59;;;4.52;71.22
17311;BME280;8773;43.300;0.394;2023-01-28T07:00:44;100532.00;;;4.59;71.11
17311;BME280;8773;43.300;0.394;2023-01-28T07:03:12;100527.88;;;4.40;71.05
17311;BME280;8773;43.300;0.394;2023-01-28T07:05:40;100533.53;;;4.49;71.41
17311;BME280;8773;43.300;0.394;2023-01-28T07:08:08;100539.75;;;4.48;70.98
17311;BME280;8773;43.300;0.394;2023-01-28T07:10:36;100547.13;;;4.42;71.05
17311;BME280;8773;43.300;0.394;2023-01-28T07:13:04;100547.03;;;4.44;70.97
17311;BME280;8773;43.300;0.394;2023-01-28T07:15:34;100544.88;;;4.36;71.38
17311;BME280;8773;43.300;0.394;2023-01-28T07:18:02;100548.06;;;4.41;71.34
17311;BME280;8773;43.300;0.394;2023-01-28T07:20:31;100551.94;;;4.36;71.26
17311;BME280;8773;43.300;0.394;2023-01-28T07:22:59;100552.22;;;4.46;71.31
17311;BME280;8773;43.300;0.394;2023-01-28T07:25:27;100559.03;;;4.50;71.32
17311;BME280;8773;43.300;0.394;2023-01-28T07:27:57;100554.50;;;4.52;71.38
17311;BME280;8773;43.300;0.394;2023-01-28T07:30:25;100558.84;;;4.38;71.33
17311;BME280;8773;43.300;0.394;2023-01-28T07:32:56;100556.09;;;4.40;71.26
17311;BME280;8773;43.300;0.394;2023-01-28T07:35:25;100556.69;;;4.31;71.62
17311;BME280;8773;43.300;0.394;2023-01-28T07:37:54;100567.53;;;4.40;71.38
17311;BME280;8773;43.300;0.394;2023-01-28T07:40:24;100572.34;;;4.34;71.66
17311;BME280;8773;43.300;0.394;2023-01-28T07:42:52;100567.53;;;4.40;71.40
17311;BME280;8773;43.300;0.394;2023-01-28T07:45:23;100576.41;;;4.39;71.47
17311;BME280;8773;43.300;0.394;2023-01-28T07:47:56;100581.69;;;4.39;71.77
17311;BME280;8773;43.300;0.394;2023-01-28T07:50:26;100591.13;;;4.43;71.61
17311;BME280;8773;43.300;0.394;2023-01-28T07:52:55;100582.81;;;4.50;71.35
17311;BME280;8773;43.300;0.394;2023-01-28T07:55:23;100593.03;;;4.56;71.45
17311;BME280;8773;43.300;0.394;2023-01-28T07:57:55;100594.06;;;4.53;71.35
17311;BME280;8773;43.300;0.394;2023-01-28T08:00:25;100599.81;;;4.60;71.33
17311;BME280;8773;43.300;0.394;2023-01-28T08:02:56;100600.75;;;4.59;71.41
17311;BME280;8773;43.300;0.394;2023-01-28T08:05:25;100597.56;;;4.39;71.62
17311;BME280;8773;43.300;0.394;2023-01-28T08:07:56;100607.00;;;4.43;71.91
17311;BME280;8773;43.300;0.394;2023-01-28T08:10:24;100603.59;;;4.41;71.80
17311;BME280;8773;43.300;0.394;2023-01-28T08:12:53;100600.00;;;4.42;71.91
17311;BME280;8773;43.300;0.394;2023-01-28T08:15:21;100595.84;;;4.38;71.65
17311;BME280;8773;43.300;0.394;2023-01-28T08:17:50;100606.16;;;4.43;71.81
17311;BME280;8773;43.300;0.394;2023-01-28T08:20:22;100604.25;;;4.45;71.69
17311;BME280;8773;43.300;0.394;2023-01-28T08:22:50;100598.78;;;4.48;71.89
17311;BME280;8773;43.300;0.394;2023-01-28T08:25:18;100601.00;;;4.68;70.87
17311;BME280;8773;43.300;0.394;2023-01-28T08:27:46;100602.22;;;4.77;70.56
17311;BME280;8773;43.300;0.394;2023-01-28T08:30:15;100598.91;;;4.88;70.54
17311;BME280;8773;43.300;0.394;2023-01-28T08:32:43;100609.66;;;4.85;70.34
17311;BME280;8773;43.300;0.394;2023-01-28T08:35:11;100614.09;;;4.98;70.53
17311;BME280;8773;43.300;0.394;2023-01-28T08:37:41;100617.97;;;5.20;69.91
17311;BME280;8773;43.300;0.394;2023-01-28T08:40:10;100612.69;;;5.20;69.16
17311;BME280;8773;43.300;0.394;2023-01-28T08:42:38;100609.88;;;5.35;69.41
17311;BME280;8773;43.300;0.394;2023-01-28T08:45:07;100618.88;;;5.33;68.86
17311;BME280;8773;43.300;0.394;2023-01-28T08:47:36;100624.56;;;5.27;69.65
17311;BME280;8773;43.300;0.394;2023-01-28T08:50:04;100619.63;;;5.35;68.65
17311;BME280;8773;43.300;0.394;2023-01-28T08:52:33;100615.19;;;5.48;68.75
17311;BME280;8773;43.300;0.394;2023-01-28T08:55:03;100628.09;;;5.80;68.17
17311;BME280;8773;43.300;0.394;2023-01-28T08:57:31;100635.31;;;5.77;67.99
17311;BME280;8773;43.300;0.394;2023-01-28T08:59:59;100635.19;;;5.92;67.04
17311;BME280;8773;43.300;0.394;2023-01-28T09:02:27;100642.22;;;6.05;66.64
17311;BME280;8773;43.300;0.394;2023-01-28T09:04:58;100635.13;;;6.06;65.95
17311;BME280;8773;43.300;0.394;2023-01-28T09:07:26;100639.69;;;6.04;66.46
17311;BME280;8773;43.300;0.394;2023-01-28T09:09:54;100640.41;;;5.93;64.93
17311;BME280;8773;43.300;0.394;2023-01-28T09:12:24;100637.88;;;6.04;65.82
17311;BME280;8773;43.300;0.394;2023-01-28T09:14:52;100641.69;;;6.13;65.97
17311;BME280;8773;43.300;0.394;2023-01-28T09:17:20;100642.75;;;6.10;64.79
17311;BME280;8773;43.300;0.394;2023-01-28T09:19:49;100643.06;;;5.93;63.83
17311;BME280;8773;43.300;0.394;2023-01-28T09:22:18;100641.59;;;5.89;64.91
17311;BME280;8773;43.300;0.394;2023-01-28T09:24:46;100653.75;;;5.92;65.05
17311;BME280;8773;43.300;0.394;2023-01-28T09:27:14;100657.06;;;6.08;64.17
17311;BME280;8773;43.300;0.394;2023-01-28T09:29:43;100655.38;;;6.07;64.81
17311;BME280;8773;43.300;0.394;2023-01-28T09:32:11;100658.47;;;6.14;63.99
17311;BME280;8773;43.300;0.394;2023-01-28T09:34:40;100656.66;;;6.27;63.87
17311;BME280;8773;43.300;0.394;2023-01-28T09:37:10;100653.88;;;6.41;62.06
17311;BME280;8773;43.300;0.394;2023-01-28T09:39:38;100651.81;;;6.46;61.87
17311;BME280;8773;43.300;0.394;2023-01-28T09:42:25;100657.31;;;6.30;62.51
17311;BME280;8773;43.300;0.394;2023-01-28T09:45:01;100652.22;;;6.27;63.33
17311;BME280;8773;43.300;0.394;2023-01-28T09:47:36;100659.88;;;6.44;61.99
17311;BME280;8773;43.300;0.394;2023-01-28T09:50:11;100658.44;;;6.39;62.38
17311;BME280;8773;43.300;0.394;2023-01-28T09:52:41;100653.50;;;6.47;61.65
17311;BME280;8773;43.300;0.394;2023-01-28T09:55:16;100659.66;;;6.48;61.83
17311;BME280;8773;43.300;0.394;2023-01-28T09:57:47;100651.91;;;6.32;61.36
17311;BME280;8773;43.300;0.394;2023-01-28T10:00:21;100660.50;;;6.23;61.81
17311;BME280;8773;43.300;0.394;2023-01-28T10:03:11;100657.94;;;6.21;62.11
17311;BME280;8773;43.300;0.394;2023-01-28T10:05:51;100664.72;;;6.25;61.69
17311;BME280;8773;43.300;0.394;2023-01-28T10:08:35;100663.00;;;6.11;61.39
17311;BME280;8773;43.300;0.394;2023-01-28T10:11:15;100674.88;;;6.06;60.94
17311;BME280;8773;43.300;0.394;2023-01-28T10:13:52;100664.41;;;5.65;63.02
17311;BME280;8773;43.300;0.394;2023-01-28T10:16:28;100668.69;;;5.93;62.22
17311;BME280;8773;43.300;0.394;2023-01-28T10:19:02;100669.28;;;6.10;62.39
17311;BME280;8773;43.300;0.394;2023-01-28T10:21:35;100671.28;;;6.07;62.29
17311;BME280;8773;43.300;0.394;2023-01-28T10:24:09;100668.69;;;5.93;61.77
17311;BME280;8773;43.300;0.394;2023-01-28T10:26:40;100683.00;;;5.90;61.48
17311;BME280;8773;43.300;0.394;2023-01-28T10:29:14;100678.56;;;5.78;61.06
17311;BME280;8773;43.300;0.394;2023-01-28T10:31:52;100681.94;;;5.80;62.52
17311;BME280;8773;43.300;0.394;2023-01-28T10:34:21;100676.97;;;5.49;62.74
17311;BME280;8773;43.300;0.394;2023-01-28T10:36:50;100679.41;;;5.78;62.25
17311;BME280;8773;43.300;0.394;2023-01-28T10:39:20;100676.00;;;5.76;61.41
17311;BME280;8773;43.300;0.394;2023-01-28T10:41:50;100685.34;;;5.55;62.31
17311;BME280;8773;43.300;0.394;2023-01-28T10:44:30;100689.66;;;5.70;62.59
17311;BME280;8773;43.300;0.394;2023-01-28T10:47:03;100683.56;;;5.83;62.54
17311;BME280;8773;43.300;0.394;2023-01-28T10:49:37;100685.56;;;5.92;61.21
17311;BME280;8773;43.300;0.394;2023-01-28T10:52:12;100682.94;;;6.04;61.25
17311;BME280;8773;43.300;0.394;2023-01-28T10:54:41;100672.09;;;5.95;61.41
17311;BME280;8773;43.300;0.394;2023-01-28T10:57:12;100677.31;;;5.96;62.23
17311;BME280;8773;43.300;0.394;2023-01-28T10:59:41;100678.69;;;5.89;62.14
17311;BME280;8773;43.300;0.394;2023-01-28T11:02:25;100684.59;;;5.80;60.39
17311;BME280;8773;43.300;0.394;2023-01-28T11:05:01;100676.66;;;5.53;61.17
17311;BME280;8773;43.300;0.394;2023-01-28T11:07:30;100676.06;;;5.62;62.16
17311;BME280;8773;43.300;0.394;2023-01-28T11:09:58;100667.56;;;5.57;62.29
17311;BME280;8773;43.300;0.394;2023-01-28T11:12:28;100667.84;;;5.80;61.73
17311;BME280;8773;43.300;0.394;2023-01-28T11:14:58;100663.84;;;5.87;61.65
17311;BME280;8773;43.300;0.394;2023-01-28T11:17:30;100668.28;;;5.86;61.28
17311;BME280;8773;43.300;0.394;2023-01-28T11:20:08;100665.66;;;5.99;61.83
17311;BME280;8773;43.300;0.394;2023-01-28T11:22:39;100671.09;;;5.70;60.71
17311;BME280;8773;43.300;0.394;2023-01-28T11:25:15;100668.72;;;5.53;61.59
17311;BME280;8773;43.300;0.394;2023-01-28T11:27:46;100659.41;;;5.60;60.86
17311;BME280;8773;43.300;0.394;2023-01-28T11:30:20;100645.91;;;5.38;61.69
17311;BME280;8773;43.300;0.394;2023-01-28T11:33:02;100651.16;;;5.65;61.38
17311;BME280;8773;43.300;0.394;2023-01-28T11:35:32;100650.88;;;5.69;60.78
17311;BME280;8773;43.300;0.394;2023-01-28T11:38:00;100648.00;;;5.72;60.84
17311;BME280;8773;43.300;0.394;2023-01-28T11:40:28;100640.56;;;5.65;60.86
17311;BME280;8773;43.300;0.394;2023-01-28T11:42:56;100629.66;;;5.69;60.94
17311;BME280;8773;43.300;0.394;2023-01-28T11:45:45;100629.06;;;5.78;61.18
17311;BME280;8773;43.300;0.394;2023-01-28T11:48:29;100631.72;;;5.78;60.41
17311;BME280;8773;43.300;0.394;2023-01-28T11:51:05;100631.72;;;5.78;60.46
17311;BME280;8773;43.300;0.394;2023-01-28T11:53:51;100625.22;;;5.70;60.49
17311;BME280;8773;43.300;0.394;2023-01-28T11:56:32;100623.97;;;5.75;60.44
17311;BME280;8773;43.300;0.394;2023-01-28T11:59:19;100618.03;;;5.85;60.92
17311;BME280;8773;43.300;0.394;2023-01-28T12:01:58;100606.38;;;6.00;60.55
17311;BME280;8773;43.300;0.394;2023-01-28T12:04:44;100607.44;;;6.10;60.95
17311;BME280;8773;43.300;0.394;2023-01-28T12:07:29;100601.63;;;6.18;60.69
17311;BME280;8773;43.300;0.394;2023-01-28T12:10:08;100591.00;;;6.30;59.97
17311;BME280;8773;43.300;0.394;2023-01-28T12:16:06;100581.84;;;6.34;58.90
17311;BME280;8773;43.300;0.394;2023-01-28T12:18:54;100583.03;;;6.43;58.42
17311;BME280;8773;43.300;0.394;2023-01-28T12:21:39;100581.97;;;6.58;58.98
17311;BME280;8773;43.300;0.394;2023-01-28T12:24:21;100574.53;;;6.38;59.07
17311;BME280;8773;43.300;0.394;2023-01-28T12:27:00;100575.16;;;6.41;58.84
17311;BME280;8773;43.300;0.394;2023-01-28T12:29:36;100564.03;;;6.49;58.01
17311;BME280;8773;43.300;0.394;2023-01-28T12:32:23;100570.72;;;6.55;57.70
17311;BME280;8773;43.300;0.394;2023-01-28T12:35:24;100564.09;;;6.73;59.05
17311;BME280;8773;43.300;0.394;2023-01-28T12:38:07;100554.22;;;6.75;56.90
17311;BME280;8773;43.300;0.394;2023-01-28T12:40:56;100551.06;;;6.70;58.60
17311;BME280;8773;43.300;0.394;2023-01-28T12:43:36;100549.25;;;6.70;57.01
17311;BME280;8773;43.300;0.394;2023-01-28T12:46:11;100556.50;;;6.56;57.39
17311;BME280;8773;43.300;0.394;2023-01-28T12:48:47;100552.34;;;6.64;58.40
17311;BME280;8773;43.300;0.394;2023-01-28T12:51:21;100531.41;;;6.72;57.08
17311;BME280;8773;43.300;0.394;2023-01-28T12:53:56;100538.84;;;6.91;56.99
17311;BME280;8773;43.300;0.394;2023-01-28T12:56:30;100542.91;;;6.84;57.50
17311;BME280;8773;43.300;0.394;2023-01-28T12:59:02;100545.75;;;6.70;56.89
17311;BME280;8773;43.300;0.394;2023-01-28T13:01:36;100543.09;;;6.70;57.06
17311;BME280;8773;43.300;0.394;2023-01-28T13:04:12;100540.50;;;6.44;57.02
17311;BME280;8773;43.300;0.394;2023-01-28T13:06:47;100545.69;;;6.33;59.00
17311;BME280;8773;43.300;0.394;2023-01-28T13:09:21;100548.06;;;6.25;59.11
17311;BME280;8773;43.300;0.394;2023-01-28T13:11:53;100546.78;;;6.18;58.96
17311;BME280;8773;43.300;0.394;2023-01-28T13:14:26;100534.69;;;6.14;59.46
17311;BME280;8773;43.300;0.394;2023-01-28T13:17:07;100535.31;;;6.30;58.19
17311;BME280;8773;43.300;0.394;2023-01-28T13:19:38;100548.25;;;6.22;58.69
17311;BME280;8773;43.300;0.394;2023-01-28T13:22:12;100545.19;;;5.90;58.91
17311;BME280;8773;43.300;0.394;2023-01-28T13:24:42;100553.78;;;5.94;58.79
17311;BME280;8773;43.300;0.394;2023-01-28T13:27:12;100552.09;;;5.93;58.52
17311;BME280;8773;43.300;0.394;2023-01-28T13:29:46;100552.00;;;5.82;59.58
17311;BME280;8773;43.300;0.394;2023-01-28T13:32:30;100548.09;;;5.87;59.42
17311;BME280;8773;43.300;0.394;2023-01-28T13:35:02;100549.75;;;6.01;59.92
17311;BME280;8773;43.300;0.394;2023-01-28T13:37:33;100546.03;;;5.91;59.12
17311;BME280;8773;43.300;0.394;2023-01-28T13:40:21;100552.41;;;6.01;59.19